createdAt,value
2019-01-17T00:00:34.483Z,2.00
2019-01-17T00:04:15.563Z,2.07
2019-01-17T00:07:49.971Z,2.00
2019-01-17T00:11:11.481Z,1.97
2019-01-17T00:14:25.726Z,1.80
2019-01-17T00:17:57.428Z,1.77
2019-01-17T00:21:26.856Z,1.90
2019-01-17T00:24:43.861Z,2.03
2019-01-17T00:27:56.841Z,2.00
2019-01-17T00:31:23.594Z,1.55
2019-01-17T00:34:43.471Z,1.50
2019-01-17T00:38:06.537Z,2.07
2019-01-17T00:41:23.047Z,2.17
2019-01-17T00:44:44.560Z,1.98
2019-01-17T00:48:09.364Z,1.60
2019-01-17T00:51:40.665Z,1.82
2019-01-17T00:55:03.769Z,1.70
2019-01-17T00:58:18.543Z,1.90
2019-01-17T01:01:41.101Z,1.52
2019-01-17T01:04:53.693Z,1.47
2019-01-17T01:08:15.219Z,1.85
2019-01-17T01:11:36.428Z,1.75
2019-01-17T01:14:50.892Z,1.80
2019-01-17T01:18:07.109Z,1.80
2019-01-17T01:21:22.781Z,1.70
2019-01-17T01:24:56.685Z,1.70
2019-01-17T01:28:11.564Z,1.80
2019-01-17T01:31:34.088Z,1.87
2019-01-17T01:34:54.001Z,1.83
2019-01-17T01:38:08.449Z,1.73
2019-01-17T01:41:37.233Z,1.80
2019-01-17T01:44:56.926Z,1.82
2019-01-17T01:48:21.827Z,1.90
2019-01-17T01:51:47.578Z,2.00
2019-01-17T01:54:51.075Z,1.63
2019-01-17T01:57:54.579Z,1.60
2019-01-17T02:00:58.046Z,1.83
2019-01-17T02:04:01.549Z,1.57
2019-01-17T02:07:05.121Z,1.45
2019-01-17T02:10:09.267Z,1.77
2019-01-17T02:13:12.787Z,1.50
2019-01-17T02:16:16.276Z,1.60
2019-01-17T02:19:19.871Z,1.67
2019-01-17T02:22:23.390Z,1.77
2019-01-17T02:25:26.866Z,1.90
2019-01-17T02:28:30.370Z,1.50
2019-01-17T02:31:33.897Z,1.77
2019-01-17T02:34:37.378Z,2.12
2019-01-17T02:37:41.904Z,1.80
2019-01-17T02:40:45.407Z,1.75
2019-01-17T02:43:49.928Z,1.93
2019-01-17T02:46:53.431Z,1.80
2019-01-17T02:49:58.974Z,1.70
2019-01-17T02:53:04.544Z,1.70
2019-01-17T02:56:07.979Z,1.60
2019-01-17T02:59:11.543Z,1.60
2019-01-17T03:02:15.031Z,1.70
2019-01-17T03:05:18.558Z,1.43
2019-01-17T03:08:22.038Z,1.73
2019-01-17T03:11:25.525Z,1.60
2019-01-17T03:14:31.103Z,1.67
2019-01-17T03:17:34.584Z,1.80
2019-01-17T03:20:38.075Z,1.90
2019-01-17T03:23:41.705Z,1.63
2019-01-17T03:26:45.285Z,1.80
2019-01-17T03:29:48.801Z,1.60
2019-01-17T03:32:52.291Z,1.93
2019-01-17T03:35:55.778Z,1.70
2019-01-17T03:38:59.296Z,1.60
2019-01-17T03:42:02.797Z,1.70
2019-01-17T03:45:07.018Z,1.50
2019-01-17T03:48:10.644Z,1.50
2019-01-17T03:51:15.151Z,1.87
2019-01-17T03:54:18.674Z,1.60
2019-01-17T03:57:24.214Z,1.77
2019-01-17T04:00:27.745Z,1.40
2019-01-17T04:03:31.237Z,1.90
2019-01-17T04:06:34.690Z,1.60
2019-01-17T04:09:41.059Z,1.57
2019-01-17T04:12:44.566Z,1.80
2019-01-17T04:15:48.060Z,1.90
2019-01-17T04:18:51.538Z,1.80
2019-01-17T04:21:55.071Z,2.00
2019-01-17T04:24:58.572Z,1.63
2019-01-17T04:28:02.081Z,1.70
2019-01-17T04:31:05.568Z,1.73
2019-01-17T04:34:09.475Z,1.90
2019-01-17T04:37:13.176Z,1.70
2019-01-17T04:40:16.685Z,1.70
2019-01-17T04:43:21.215Z,1.90
2019-01-17T04:46:24.707Z,1.63
2019-01-17T04:49:28.222Z,1.90
2019-01-17T04:52:31.735Z,2.00
2019-01-17T04:55:35.178Z,1.73
2019-01-17T04:58:38.753Z,2.00
2019-01-17T05:01:42.227Z,1.80
2019-01-17T05:04:45.716Z,1.87
2019-01-17T05:07:51.265Z,1.73
2019-01-17T05:10:54.773Z,1.70
2019-01-17T05:13:58.271Z,1.67
2019-01-17T05:17:02.780Z,1.73
2019-01-17T05:20:10.108Z,2.00
2019-01-17T05:23:13.674Z,1.90
2019-01-17T05:26:18.208Z,1.60
2019-01-17T05:29:21.711Z,1.83
2019-01-17T05:32:25.247Z,1.93
2019-01-17T05:35:28.729Z,1.63
2019-01-17T05:38:33.237Z,1.80
2019-01-17T05:41:36.769Z,1.93
2019-01-17T05:44:40.260Z,1.57
2019-01-17T05:47:43.749Z,1.50
2019-01-17T05:50:47.274Z,1.80
2019-01-17T05:53:50.775Z,1.93
2019-01-17T05:56:54.201Z,2.03
2019-01-17T05:59:57.757Z,1.70
2019-01-17T06:03:02.267Z,1.90
2019-01-17T06:06:05.757Z,2.00
2019-01-17T06:09:09.723Z,1.57
2019-01-17T06:12:14.191Z,1.90
2019-01-17T06:15:20.619Z,2.13
2019-01-17T06:18:24.065Z,1.93
2019-01-17T06:21:27.580Z,2.17
2019-01-17T06:24:31.078Z,2.00
2019-01-17T06:27:35.687Z,1.80
2019-01-17T06:30:39.328Z,1.80
2019-01-17T06:33:42.909Z,1.50
2019-01-17T06:36:46.497Z,1.93
2019-01-17T06:39:50.016Z,1.80
2019-01-17T06:42:53.504Z,1.50
2019-01-17T06:45:59.056Z,1.90
2019-01-17T06:49:02.651Z,1.80
2019-01-17T06:52:06.263Z,1.70
2019-01-17T06:55:09.718Z,1.70
2019-01-17T06:58:13.262Z,1.63
2019-01-17T07:01:16.764Z,1.87
2019-01-17T07:04:20.274Z,1.63
2019-01-17T07:07:23.759Z,1.50
2019-01-17T07:10:27.263Z,1.83
2019-01-17T07:13:31.780Z,1.70
2019-01-17T07:16:35.285Z,1.57
2019-01-17T07:19:38.802Z,1.77
2019-01-17T07:22:42.299Z,1.73
2019-01-17T07:25:45.817Z,1.80
2019-01-17T07:28:50.350Z,1.70
2019-01-17T07:31:53.816Z,1.60
2019-01-17T07:34:57.315Z,1.87
2019-01-17T07:38:00.767Z,1.63
2019-01-17T07:41:05.376Z,1.73
2019-01-17T07:44:08.850Z,1.83
2019-01-17T07:47:12.357Z,1.73
2019-01-17T07:50:15.856Z,1.80
2019-01-17T07:53:19.382Z,1.50
2019-01-17T07:56:22.862Z,1.80
2019-01-17T07:59:26.352Z,1.60
2019-01-17T08:02:29.841Z,1.50
2019-01-17T08:05:33.373Z,1.70
2019-01-17T08:08:37.879Z,1.63
2019-01-17T08:11:41.374Z,1.50
2019-01-17T08:14:44.890Z,1.50
2019-01-17T08:17:48.376Z,1.33
2019-01-17T08:20:52.466Z,1.77
2019-01-17T08:23:56.031Z,1.80
2019-01-17T08:26:59.506Z,1.80
2019-01-17T08:30:03.116Z,1.87
2019-01-17T08:33:06.701Z,1.70
2019-01-17T08:36:10.208Z,1.80
2019-01-17T08:39:13.727Z,1.40
2019-01-17T08:42:17.195Z,1.70
2019-01-17T08:45:20.727Z,1.43
2019-01-17T08:48:24.241Z,1.43
2019-01-17T08:51:27.713Z,1.60
2019-01-17T08:54:31.212Z,1.33
2019-01-17T08:57:34.709Z,2.00
2019-01-17T09:00:38.234Z,1.63
2019-01-17T09:03:42.737Z,1.47
2019-01-17T09:06:46.232Z,1.90
2019-01-17T09:09:49.850Z,1.40
2019-01-17T09:12:53.467Z,1.43
2019-01-17T09:15:57.952Z,1.53
2019-01-17T09:19:01.471Z,1.60
2019-01-17T09:22:04.961Z,1.43
2019-01-17T09:25:10.106Z,1.47
2019-01-17T09:28:13.603Z,1.37
2019-01-17T09:31:17.109Z,1.40
2019-01-17T09:34:20.601Z,1.40
2019-01-17T09:37:24.139Z,1.20
2019-01-17T09:40:27.617Z,1.33
2019-01-17T09:43:31.114Z,1.80
2019-01-17T09:46:35.651Z,1.23
2019-01-17T09:49:39.139Z,1.62
2019-01-17T09:52:42.750Z,1.50
2019-01-17T09:55:46.381Z,1.37
2019-01-17T09:58:49.843Z,1.40
2019-01-17T10:01:53.357Z,1.30
2019-01-17T10:04:56.863Z,1.00
2019-01-17T10:08:00.340Z,1.40
2019-01-17T10:11:04.904Z,1.70
2019-01-17T10:14:08.359Z,1.00
2019-01-17T10:17:41.085Z,1.30
2019-01-17T10:21:10.171Z,1.10
2019-01-17T10:24:34.950Z,1.20
2019-01-17T10:27:46.659Z,1.25
2019-01-17T10:31:20.129Z,0.90
2019-01-17T10:35:06.154Z,1.25
2019-01-17T10:38:48.856Z,1.50
2019-01-17T10:42:34.657Z,1.50
2019-01-17T10:46:04.409Z,0.93
2019-01-17T10:49:36.677Z,1.30
2019-01-17T10:53:26.642Z,1.12
2019-01-17T10:56:41.597Z,1.10
2019-01-17T11:00:10.117Z,1.00
2019-01-17T11:03:49.428Z,1.35
2019-01-17T11:07:26.294Z,1.07
2019-01-17T11:11:19.166Z,1.10
2019-01-17T11:14:46.942Z,0.90
2019-01-17T11:18:02.024Z,1.07
2019-01-17T11:21:32.492Z,1.20
2019-01-17T11:24:58.369Z,1.27
2019-01-17T11:29:01.562Z,1.10
2019-01-17T11:32:36.819Z,1.07
2019-01-17T11:36:18.659Z,1.20
2019-01-17T11:39:43.830Z,1.40
2019-01-17T11:43:01.928Z,1.30
2019-01-17T11:47:02.177Z,1.22
2019-01-17T11:50:41.137Z,1.30
2019-01-17T11:54:22.567Z,1.42
2019-01-17T11:58:05.690Z,1.17
2019-01-17T12:02:04.054Z,1.20
2019-01-17T12:05:07.492Z,1.05
2019-01-17T12:08:11.061Z,1.35
2019-01-17T12:11:14.624Z,1.12
2019-01-17T12:14:18.157Z,1.07
2019-01-17T12:17:22.056Z,1.02
2019-01-17T12:20:26.795Z,1.10
2019-01-17T12:23:30.262Z,1.20
2019-01-17T12:26:34.790Z,1.20
2019-01-17T12:29:38.291Z,1.00
2019-01-17T12:32:41.848Z,1.30
2019-01-17T12:35:45.294Z,1.10
2019-01-17T12:38:49.821Z,1.05
2019-01-17T12:41:53.328Z,1.92
2019-01-17T12:44:56.835Z,1.25
2019-01-17T12:48:00.366Z,1.65
2019-01-17T12:51:03.937Z,1.65
2019-01-17T12:54:07.829Z,1.20
2019-01-17T12:57:11.432Z,1.20
2019-01-17T13:00:17.512Z,1.40
2019-01-17T13:03:22.204Z,1.30
2019-01-17T13:06:27.670Z,1.10
2019-01-17T13:09:31.173Z,1.25
2019-01-17T13:12:34.706Z,1.30
2019-01-17T13:15:38.187Z,1.50
2019-01-17T13:18:41.690Z,1.17
2019-01-17T13:21:46.271Z,1.35
2019-01-17T13:24:49.716Z,1.20
2019-01-17T13:27:53.221Z,1.00
2019-01-17T13:30:56.706Z,1.35
2019-01-17T13:34:00.252Z,0.80
2019-01-17T13:37:03.714Z,1.12
2019-01-17T13:40:11.736Z,1.10
2019-01-17T13:43:15.269Z,1.30
2019-01-17T13:46:18.803Z,1.32
2019-01-17T13:49:22.354Z,1.15
2019-01-17T13:52:25.942Z,1.10
2019-01-17T13:55:31.516Z,1.17
2019-01-17T13:58:35.002Z,1.07
2019-01-17T14:01:38.442Z,0.90
2019-01-17T14:04:42.319Z,1.07
2019-01-17T14:07:46.001Z,0.93
2019-01-17T14:10:49.597Z,1.12
2019-01-17T14:13:53.111Z,0.78
2019-01-17T14:16:56.638Z,0.98
2019-01-17T14:20:00.235Z,0.90
2019-01-17T14:23:03.799Z,1.00
2019-01-17T14:26:07.321Z,0.98
2019-01-17T14:29:10.830Z,1.20
2019-01-17T14:32:14.314Z,0.93
2019-01-17T14:35:17.830Z,0.90
2019-01-17T14:38:21.687Z,1.10
2019-01-17T14:41:25.295Z,0.93
2019-01-17T14:44:30.068Z,0.85
2019-01-17T14:47:35.749Z,1.00
2019-01-17T14:50:39.228Z,0.70
2019-01-17T14:53:44.836Z,1.00
2019-01-17T14:56:50.000Z,0.80
2019-01-17T14:59:53.642Z,0.80
2019-01-17T15:02:58.342Z,0.85
2019-01-17T15:06:03.382Z,1.00
2019-01-17T15:09:08.264Z,0.78
2019-01-17T15:12:11.732Z,1.05
2019-01-17T15:15:15.245Z,0.95
2019-01-17T15:18:18.758Z,1.00
2019-01-17T15:21:22.268Z,0.90
2019-01-17T15:24:25.737Z,0.90
2019-01-17T15:27:29.262Z,0.80
2019-01-17T15:30:32.769Z,0.70
2019-01-17T15:33:38.407Z,0.80
2019-01-17T15:36:41.983Z,0.75
2019-01-17T15:39:46.646Z,1.02
2019-01-17T15:42:50.218Z,0.78
2019-01-17T15:45:54.761Z,0.80
2019-01-17T15:48:58.251Z,0.90
2019-01-17T15:52:01.753Z,0.80
2019-01-17T15:55:06.382Z,0.70
2019-01-17T15:58:10.025Z,0.60
2019-01-17T16:01:13.514Z,0.68
2019-01-17T16:04:16.983Z,0.70
2019-01-17T16:07:20.492Z,0.70
2019-01-17T16:10:23.980Z,0.80
2019-01-17T16:13:27.502Z,0.70
2019-01-17T16:16:31.003Z,0.60
2019-01-17T16:19:34.494Z,0.90
2019-01-17T16:22:39.024Z,0.70
2019-01-17T16:25:42.549Z,0.90
2019-01-17T16:28:46.140Z,0.90
2019-01-17T16:31:49.830Z,0.90
2019-01-17T16:34:53.423Z,0.70
2019-01-17T16:37:56.933Z,0.70
2019-01-17T16:41:01.459Z,0.70
2019-01-17T16:44:05.079Z,0.80
2019-01-17T16:47:08.741Z,0.50
2019-01-17T16:50:15.036Z,0.70
2019-01-17T16:53:18.734Z,0.60
2019-01-17T16:56:22.251Z,0.75
2019-01-17T16:59:25.877Z,0.70
2019-01-17T17:02:29.436Z,0.65
2019-01-17T17:05:32.994Z,0.40
2019-01-17T17:08:36.478Z,0.90
2019-01-17T17:11:40.002Z,0.82
2019-01-17T17:14:43.458Z,0.72
2019-01-17T17:17:46.985Z,0.70
2019-01-17T17:20:50.452Z,0.72
2019-01-17T17:23:54.080Z,0.95
2019-01-17T17:26:57.756Z,0.90
2019-01-17T17:30:01.377Z,0.80
2019-01-17T17:33:04.868Z,0.70
2019-01-17T17:36:08.402Z,0.40
2019-01-17T17:39:12.900Z,0.80
2019-01-17T17:42:17.419Z,0.70
2019-01-17T17:45:20.924Z,0.60
2019-01-17T17:48:25.427Z,0.70
2019-01-17T17:51:28.954Z,0.53
2019-01-17T17:54:33.501Z,0.60
2019-01-17T17:57:36.988Z,0.50
2019-01-17T18:00:48.746Z,0.60
2019-01-17T18:03:52.205Z,0.65
2019-01-17T18:06:55.676Z,0.57
2019-01-17T18:09:59.187Z,0.75
2019-01-17T18:13:02.771Z,0.60
2019-01-17T18:16:06.377Z,0.68
2019-01-17T18:19:09.897Z,0.78
2019-01-17T18:22:14.662Z,0.62
2019-01-17T18:25:18.132Z,0.60
2019-01-17T18:28:21.711Z,0.50
2019-01-17T18:31:25.319Z,0.55
2019-01-17T18:34:28.828Z,0.65
2019-01-17T18:37:32.315Z,0.60
2019-01-17T18:40:35.820Z,0.80
2019-01-17T18:43:39.319Z,0.70
2019-01-17T18:46:42.832Z,0.60
2019-01-17T18:49:47.368Z,0.50
2019-01-17T18:52:50.963Z,0.70
2019-01-17T18:55:55.700Z,0.50
2019-01-17T18:58:59.283Z,0.60
2019-01-17T19:02:02.784Z,0.60
2019-01-17T19:05:06.225Z,0.62
2019-01-17T19:08:09.783Z,0.50
2019-01-17T19:11:13.421Z,0.60
2019-01-17T19:14:16.997Z,0.60
2019-01-17T19:17:20.524Z,0.53
2019-01-17T19:20:24.119Z,0.60
2019-01-17T19:23:27.708Z,0.60
2019-01-17T19:26:32.347Z,0.50
2019-01-17T19:29:35.943Z,0.60
2019-01-17T19:32:39.430Z,0.57
2019-01-17T19:35:42.951Z,0.70
2019-01-17T19:38:46.437Z,0.68
2019-01-17T19:41:49.946Z,0.57
2019-01-17T19:44:53.462Z,0.62
2019-01-17T19:47:56.948Z,0.50
2019-01-17T19:51:00.445Z,0.60
2019-01-17T19:54:03.956Z,0.80
2019-01-17T19:57:07.517Z,0.50
2019-01-17T20:00:12.610Z,0.60
2019-01-17T20:03:16.089Z,0.70
2019-01-17T20:06:21.638Z,0.60
2019-01-17T20:09:25.154Z,0.60
2019-01-17T20:12:28.638Z,0.50
2019-01-17T20:15:32.142Z,0.50
2019-01-17T20:18:35.606Z,0.60
2019-01-17T20:21:39.160Z,0.80
2019-01-17T20:24:43.688Z,0.65
2019-01-17T20:27:47.179Z,0.57
2019-01-17T20:30:51.723Z,0.30
2019-01-17T20:33:55.213Z,0.37
2019-01-17T20:37:00.765Z,0.60
2019-01-17T20:40:05.040Z,0.40
2019-01-17T20:43:08.574Z,0.55
2019-01-17T20:46:12.072Z,0.70
2019-01-17T20:49:16.585Z,0.53
2019-01-17T20:52:20.122Z,0.40
2019-01-17T20:55:23.731Z,0.65
2019-01-17T20:58:27.303Z,0.55
2019-01-17T21:02:14.022Z,0.47
2019-01-17T21:05:17.952Z,0.40
2019-01-17T21:08:21.474Z,0.60
2019-01-17T21:11:25.252Z,0.72
2019-01-17T21:14:28.840Z,0.60
2019-01-17T21:17:32.461Z,0.45
2019-01-17T21:20:36.054Z,0.40
2019-01-17T21:23:39.552Z,0.55
2019-01-17T21:26:43.059Z,0.60
2019-01-17T21:29:48.602Z,0.47
2019-01-17T21:32:52.102Z,0.60
2019-01-17T21:35:55.650Z,0.40
2019-01-17T21:38:59.104Z,0.40
2019-01-17T21:42:02.597Z,0.37
2019-01-17T21:45:08.392Z,0.40
2019-01-17T21:48:11.853Z,0.50
2019-01-17T21:51:21.301Z,0.40
2019-01-17T21:54:24.807Z,0.40
2019-01-17T21:57:28.310Z,0.40
2019-01-17T22:00:31.809Z,0.50
2019-01-17T22:03:35.311Z,0.40
2019-01-17T22:06:38.755Z,0.30
2019-01-17T22:09:42.189Z,0.50
2019-01-17T22:12:45.650Z,0.37
2019-01-17T22:15:49.105Z,0.40
2019-01-17T22:18:53.614Z,0.30
2019-01-17T22:21:57.184Z,0.40
2019-01-17T22:25:00.624Z,0.45
2019-01-17T22:28:04.148Z,0.35
2019-01-17T22:31:07.661Z,0.33
2019-01-17T22:34:11.134Z,0.65
2019-01-17T22:37:16.676Z,0.40
2019-01-17T22:40:20.187Z,0.40
2019-01-17T22:43:26.472Z,0.50
2019-01-17T22:46:30.168Z,0.47
2019-01-17T22:49:33.609Z,0.37
2019-01-17T22:52:37.253Z,0.40
2019-01-17T22:55:40.766Z,0.60
2019-01-17T22:58:44.258Z,0.50
2019-01-17T23:01:47.762Z,0.47
2019-01-17T23:04:51.192Z,0.40
2019-01-17T23:07:54.664Z,0.40
2019-01-17T23:10:58.258Z,0.40
2019-01-17T23:14:02.798Z,0.40
2019-01-17T23:17:06.287Z,0.40
2019-01-17T23:20:10.955Z,0.45
2019-01-17T23:23:14.437Z,0.47
2019-01-17T23:26:17.936Z,0.40
2019-01-17T23:29:21.412Z,0.40
2019-01-17T23:32:25.023Z,0.40
2019-01-17T23:35:28.513Z,0.40
2019-01-17T23:38:32.026Z,0.40
2019-01-17T23:41:36.587Z,0.40
2019-01-17T23:44:40.043Z,0.40
2019-01-17T23:47:43.549Z,0.45
2019-01-17T23:50:47.045Z,0.60
2019-01-17T23:53:50.553Z,0.40
2019-01-17T23:56:54.019Z,0.40
2019-01-17T23:59:57.544Z,0.37
